Time,TemperatureF,DewpointF,PressureIn,WindDirection,WindDirectionDegrees,WindSpeedMPH,WindSpeedGustMPH,Humidity,HourlyPrecipIn,Conditions,Clouds,dailyrainin,SoftwareType,DateUTC
2013-02-25 00:02:00,40.1,30.0,30.32,North,0,0.0,1.0,67,0.00,,,0.00,meteohub,2013-02-25 08:02:00,
2013-02-25 00:07:00,40.1,30.0,30.32,North,0,0.0,0.0,67,0.00,,,0.00,meteohub,2013-02-25 08:07:00,
2013-02-25 00:12:00,39.7,29.7,30.32,North,0,0.0,0.0,67,0.00,,,0.00,meteohub,2013-02-25 08:12:00,
2013-02-25 00:17:00,39.4,29.3,30.32,North,0,0.0,0.0,67,0.00,,,0.00,meteohub,2013-02-25 08:17:00,
2013-02-25 00:22:00,39.0,29.3,30.33,North,0,0.0,1.0,68,0.00,,,0.00,meteohub,2013-02-25 08:22:00,
2013-02-25 00:27:00,39.2,29.5,30.32,North,0,0.0,1.0,68,0.00,,,0.00,meteohub,2013-02-25 08:27:00,
2013-02-25 00:32:00,39.4,29.7,30.32,North,0,0.0,1.0,68,0.00,,,0.00,meteohub,2013-02-25 08:32:00,
2013-02-25 00:37:00,39.4,29.7,30.32,North,0,0.0,0.0,68,0.00,,,0.00,meteohub,2013-02-25 08:37:00,
2013-02-25 00:42:00,39.6,29.8,30.33,North,0,0.0,0.0,68,0.00,,,0.00,meteohub,2013-02-25 08:42:00,
2013-02-25 00:47:00,39.7,30.4,30.33,North,0,0.0,0.0,69,0.00,,,0.00,meteohub,2013-02-25 08:47:00,
2013-02-25 00:52:00,39.7,30.4,30.33,North,0,0.0,1.0,69,0.00,,,0.00,meteohub,2013-02-25 08:52:00,
2013-02-25 00:57:00,39.7,30.0,30.32,North,0,0.0,1.0,68,0.00,,,0.00,meteohub,2013-02-25 08:57:00,
2013-02-25 01:02:00,39.7,30.0,30.32,North,0,0.0,1.0,68,0.00,,,0.00,meteohub,2013-02-25 09:02:00,
2013-02-25 01:07:00,39.7,30.0,30.32,North,0,0.0,0.0,68,0.00,,,0.00,meteohub,2013-02-25 09:07:00,
2013-02-25 01:12:00,39.9,30.2,30.32,North,0,0.0,1.0,68,0.00,,,0.00,meteohub,2013-02-25 09:12:00,
2013-02-25 01:17:00,39.7,30.0,30.33,North,0,0.0,1.0,68,0.00,,,0.00,meteohub,2013-02-25 09:17:00,
2013-02-25 01:22:00,39.7,30.0,30.33,North,0,0.0,1.0,68,0.00,,,0.00,meteohub,2013-02-25 09:22:00,
2013-02-25 01:27:00,39.7,30.0,30.33,North,0,0.0,0.0,68,0.00,,,0.00,meteohub,2013-02-25 09:27:00,
2013-02-25 01:32:00,39.7,30.0,30.34,North,0,0.0,0.0,68,0.00,,,0.00,meteohub,2013-02-25 09:32:00,
2013-02-25 01:37:00,39.7,30.0,30.34,North,0,0.0,0.0,68,0.00,,,0.00,meteohub,2013-02-25 09:37:00,
2013-02-25 01:42:00,39.7,30.4,30.34,North,0,0.0,0.0,69,0.00,,,0.00,meteohub,2013-02-25 09:42:00,
2013-02-25 01:47:00,39.7,30.4,30.33,North,0,0.0,0.0,69,0.00,,,0.00,meteohub,2013-02-25 09:47:00,
2013-02-25 01:52:00,39.6,29.8,30.33,North,0,0.0,0.0,68,0.00,,,0.00,meteohub,2013-02-25 09:52:00,
2013-02-25 01:57:00,39.4,30.0,30.33,North,0,0.0,0.0,69,0.00,,,0.00,meteohub,2013-02-25 09:57:00,
2013-02-25 02:02:00,39.0,29.7,30.32,North,0,1.0,0.0,69,0.00,,,0.00,meteohub,2013-02-25 10:02:00,
2013-02-25 02:07:00,39.2,29.8,30.32,North,0,0.0,1.0,69,0.00,,,0.00,meteohub,2013-02-25 10:07:00,
2013-02-25 02:12:00,39.2,30.2,30.32,ESE,113,2.0,2.0,70,0.00,,,0.00,meteohub,2013-02-25 10:12:00,
2013-02-25 02:17:00,39.6,30.2,30.33,SE,135,0.0,2.0,69,0.00,,,0.00,meteohub,2013-02-25 10:17:00,
2013-02-25 02:22:00,39.6,30.2,30.32,SE,135,0.0,2.0,69,0.00,,,0.00,meteohub,2013-02-25 10:22:00,
2013-02-25 02:27:00,39.0,29.7,30.32,SE,135,1.0,2.0,69,0.00,,,0.00,meteohub,2013-02-25 10:27:00,
2013-02-25 02:32:00,39.0,30.0,30.32,SE,135,0.0,1.0,70,0.00,,,0.00,meteohub,2013-02-25 10:32:00,
2013-02-25 02:37:00,39.0,30.0,30.32,SE,135,0.0,1.0,70,0.00,,,0.00,meteohub,2013-02-25 10:37:00,
2013-02-25 02:42:00,38.7,29.7,30.32,SE,135,0.0,1.0,70,0.00,,,0.00,meteohub,2013-02-25 10:42:00,
2013-02-25 02:47:00,38.5,29.5,30.32,SE,135,0.0,0.0,70,0.00,,,0.00,meteohub,2013-02-25 10:47:00,
2013-02-25 02:52:00,38.3,29.7,30.31,SE,135,0.0,0.0,71,0.00,,,0.00,meteohub,2013-02-25 10:52:00,
2013-02-25 02:57:00,38.7,30.0,30.30,SE,135,0.0,1.0,71,0.00,,,0.00,meteohub,2013-02-25 10:57:00,
2013-02-25 03:02:00,38.8,30.2,30.31,SE,135,1.0,1.0,71,0.00,,,0.00,meteohub,2013-02-25 11:02:00,
2013-02-25 03:07:00,38.8,30.2,30.31,SE,135,0.0,1.0,71,0.00,,,0.00,meteohub,2013-02-25 11:07:00,
2013-02-25 03:12:00,38.8,30.2,30.31,SE,135,0.0,1.0,71,0.00,,,0.00,meteohub,2013-02-25 11:12:00,
2013-02-25 03:17:00,38.7,30.0,30.31,SE,135,0.0,1.0,71,0.00,,,0.00,meteohub,2013-02-25 11:17:00,
2013-02-25 03:22:00,38.5,29.8,30.32,SE,135,0.0,1.0,71,0.00,,,0.00,meteohub,2013-02-25 11:22:00,
2013-02-25 03:27:00,38.8,30.6,30.31,East,90,2.0,2.0,72,0.00,,,0.00,meteohub,2013-02-25 11:27:00,
2013-02-25 03:32:00,39.0,30.4,30.32,East,90,1.0,3.0,71,0.00,,,0.00,meteohub,2013-02-25 11:32:00,
2013-02-25 03:37:00,38.8,30.2,30.32,East,90,0.0,3.0,71,0.00,,,0.00,meteohub,2013-02-25 11:37:00,
2013-02-25 03:42:00,38.7,30.0,30.32,East,90,0.0,3.0,71,0.00,,,0.00,meteohub,2013-02-25 11:42:00,
2013-02-25 03:47:00,38.3,30.0,30.32,East,90,0.0,2.0,72,0.00,,,0.00,meteohub,2013-02-25 11:47:00,
2013-02-25 03:52:00,38.1,29.8,30.32,East,90,0.0,0.0,72,0.00,,,0.00,meteohub,2013-02-25 11:52:00,
2013-02-25 03:57:00,37.9,29.7,30.32,East,90,0.0,0.0,72,0.00,,,0.00,meteohub,2013-02-25 11:57:00,
2013-02-25 04:02:00,37.9,30.0,30.32,East,90,0.0,0.0,73,0.00,,,0.00,meteohub,2013-02-25 12:02:00,
2013-02-25 04:07:00,37.9,30.0,30.33,East,90,0.0,0.0,73,0.00,,,0.00,meteohub,2013-02-25 12:07:00,
2013-02-25 04:12:00,38.5,30.6,30.33,East,90,1.0,0.0,73,0.00,,,0.00,meteohub,2013-02-25 12:12:00,
2013-02-25 04:22:00,38.3,30.4,30.32,East,90,0.0,1.0,73,0.00,,,0.00,meteohub,2013-02-25 12:22:00,
2013-02-25 04:27:00,38.1,30.2,30.32,South,180,0.0,1.0,73,0.00,,,0.00,meteohub,2013-02-25 12:27:00,
2013-02-25 04:32:00,37.9,30.0,30.33,South,180,0.0,1.0,73,0.00,,,0.00,meteohub,2013-02-25 12:32:00,
2013-02-25 04:37:00,37.8,29.8,30.33,West,270,0.0,1.0,73,0.00,,,0.00,meteohub,2013-02-25 12:37:00,
2013-02-25 04:42:00,37.6,30.0,30.33,SW,225,0.0,1.0,74,0.00,,,0.00,meteohub,2013-02-25 12:42:00,
2013-02-25 04:47:00,37.6,30.4,30.32,SW,225,0.0,0.0,75,0.00,,,0.00,meteohub,2013-02-25 12:47:00,
2013-02-25 04:52:00,37.8,30.6,30.33,East,90,2.0,2.0,75,0.00,,,0.00,meteohub,2013-02-25 12:52:00,
2013-02-25 04:57:00,38.1,30.9,30.33,West,270,1.0,2.0,75,0.00,,,0.00,meteohub,2013-02-25 12:57:00,
2013-02-25 05:07:00,37.9,30.4,30.33,West,270,0.0,2.0,74,0.00,,,0.00,meteohub,2013-02-25 13:07:00,
2013-02-25 05:17:00,37.6,30.4,30.33,West,270,0.0,3.0,75,0.00,,,0.00,meteohub,2013-02-25 13:17:00,
2013-02-25 05:22:00,37.4,30.2,30.32,SE,135,2.0,3.0,75,0.00,,,0.00,meteohub,2013-02-25 13:22:00,
2013-02-25 05:27:00,37.6,30.4,30.32,East,90,0.0,3.0,75,0.00,,,0.00,meteohub,2013-02-25 13:27:00,
2013-02-25 05:37:00,37.2,30.0,30.33,West,270,0.0,2.0,75,0.00,,,0.00,meteohub,2013-02-25 13:37:00,
2013-02-25 05:42:00,36.9,30.0,30.33,South,180,0.0,1.0,76,0.00,,,0.00,meteohub,2013-02-25 13:42:00,
2013-02-25 05:47:00,36.7,30.2,30.33,South,180,0.0,0.0,77,0.00,,,0.00,meteohub,2013-02-25 13:47:00,
2013-02-25 05:52:00,36.9,30.6,30.32,East,90,2.0,2.0,78,0.00,,,0.00,meteohub,2013-02-25 13:52:00,
2013-02-25 05:57:00,37.4,31.1,30.32,East,90,2.0,2.0,78,0.00,,,0.00,meteohub,2013-02-25 13:57:00,
2013-02-25 06:02:00,37.4,31.1,30.32,East,90,3.0,3.0,78,0.00,,,0.00,meteohub,2013-02-25 14:02:00,
2013-02-25 06:07:00,37.4,31.1,30.32,East,90,3.0,3.0,78,0.00,,,0.00,meteohub,2013-02-25 14:07:00,
2013-02-25 06:13:00,37.2,30.9,30.32,West,270,0.0,3.0,78,0.00,,,0.00,meteohub,2013-02-25 14:13:00,
2013-02-25 06:22:00,36.7,30.7,30.32,West,270,0.0,3.0,79,0.00,,,0.00,meteohub,2013-02-25 14:22:00,
2013-02-25 06:27:00,36.7,30.7,30.32,West,270,0.0,0.0,79,0.00,,,0.00,meteohub,2013-02-25 14:27:00,
2013-02-25 06:32:00,36.7,31.1,30.32,West,270,0.0,1.0,80,0.00,,,0.00,meteohub,2013-02-25 14:32:00,
2013-02-25 06:42:00,36.5,31.3,30.32,West,270,0.0,1.0,81,0.00,,,0.00,meteohub,2013-02-25 14:42:00,
2013-02-25 06:47:00,36.7,31.5,30.32,West,270,1.0,1.0,81,0.00,,,0.00,meteohub,2013-02-25 14:47:00,
2013-02-25 06:52:00,36.7,31.5,30.32,SW,225,0.0,2.0,81,0.00,,,0.00,meteohub,2013-02-25 14:52:00,
2013-02-25 06:57:00,36.5,31.3,30.33,East,90,0.0,2.0,81,0.00,,,0.00,meteohub,2013-02-25 14:57:00,
2013-02-25 07:02:00,36.5,31.3,30.32,East,90,0.0,2.0,81,0.00,,,0.00,meteohub,2013-02-25 15:02:00,
2013-02-25 07:12:00,36.3,31.3,30.32,East,90,0.0,0.0,82,0.00,,,0.00,meteohub,2013-02-25 15:12:00,
2013-02-25 07:22:00,37.0,32.4,30.33,SW,225,2.0,2.0,83,0.00,,,0.00,meteohub,2013-02-25 15:22:00,
2013-02-25 07:27:00,37.0,32.4,30.32,SW,225,0.0,2.0,83,0.00,,,0.00,meteohub,2013-02-25 15:27:00,
2013-02-25 07:32:00,37.2,32.5,30.32,SW,225,1.0,2.0,83,0.00,,,0.00,meteohub,2013-02-25 15:32:00,
2013-02-25 07:37:00,37.2,32.5,30.32,NW,315,0.0,2.0,83,0.00,,,0.00,meteohub,2013-02-25 15:37:00,
2013-02-25 07:42:00,37.4,32.7,30.32,WSW,248,0.0,2.0,83,0.00,,,0.00,meteohub,2013-02-25 15:42:00,
2013-02-25 07:47:00,37.2,32.5,30.33,WSW,248,0.0,2.0,83,0.00,,,0.00,meteohub,2013-02-25 15:47:00,
2013-02-25 07:52:00,37.4,33.1,30.33,WSW,248,0.0,2.0,84,0.00,,,0.00,meteohub,2013-02-25 15:52:00,
2013-02-25 07:57:00,37.8,33.4,30.33,WSW,248,0.0,1.0,84,0.00,,,0.00,meteohub,2013-02-25 15:57:00,
2013-02-25 08:02:00,38.1,33.8,30.33,WSW,248,0.0,0.0,84,0.00,,,0.00,meteohub,2013-02-25 16:02:00,
2013-02-25 08:07:00,38.7,34.2,30.33,WSW,248,0.0,0.0,84,0.00,,,0.00,meteohub,2013-02-25 16:07:00,
2013-02-25 08:12:00,39.2,34.7,30.33,WSW,248,0.0,0.0,84,0.00,,,0.00,meteohub,2013-02-25 16:12:00,
2013-02-25 08:17:00,39.6,34.9,30.33,WSW,248,0.0,0.0,83,0.00,,,0.00,meteohub,2013-02-25 16:17:00,
2013-02-25 08:22:00,39.9,35.2,30.34,South,180,1.0,1.0,83,0.00,,,0.00,meteohub,2013-02-25 16:22:00,
2013-02-25 08:27:00,40.5,35.8,30.34,South,180,2.0,2.0,83,0.00,,,0.00,meteohub,2013-02-25 16:27:00,
2013-02-25 08:32:00,41.5,36.5,30.33,SW,225,2.0,2.0,82,0.00,,,0.00,meteohub,2013-02-25 16:32:00,
2013-02-25 08:37:00,42.4,36.7,30.34,SW,225,1.0,2.0,80,0.00,,,0.00,meteohub,2013-02-25 16:37:00,
2013-02-25 08:47:00,43.2,36.7,30.33,SW,225,0.0,2.0,78,0.00,,,0.00,meteohub,2013-02-25 16:47:00,
2013-02-25 08:52:00,43.0,36.3,30.32,SW,225,1.0,1.0,77,0.00,,,0.00,meteohub,2013-02-25 16:52:00,
2013-02-25 08:57:00,43.2,36.5,30.32,SW,225,1.0,2.0,77,0.00,,,0.00,meteohub,2013-02-25 16:57:00,
2013-02-25 09:02:00,43.2,36.5,30.33,SW,225,1.0,2.0,77,0.00,,,0.00,meteohub,2013-02-25 17:02:00,
2013-02-25 09:07:00,43.3,36.3,30.33,SW,225,1.0,2.0,76,0.00,,,0.00,meteohub,2013-02-25 17:07:00,
2013-02-25 09:12:00,43.3,36.3,30.33,SW,225,0.0,2.0,76,0.00,,,0.00,meteohub,2013-02-25 17:12:00,
2013-02-25 09:17:00,43.5,36.5,30.32,SW,225,0.0,2.0,76,0.00,,,0.00,meteohub,2013-02-25 17:17:00,
2013-02-25 09:22:00,43.9,36.9,30.32,SW,225,1.0,2.0,76,0.00,,,0.00,meteohub,2013-02-25 17:22:00,
2013-02-25 09:27:00,44.2,37.2,30.32,SW,225,1.0,2.0,76,0.00,,,0.00,meteohub,2013-02-25 17:27:00,
2013-02-25 09:32:00,44.6,37.6,30.32,SW,225,2.0,2.0,76,0.00,,,0.00,meteohub,2013-02-25 17:32:00,
2013-02-25 09:37:00,45.1,37.8,30.32,SW,225,1.0,2.0,75,0.00,,,0.00,meteohub,2013-02-25 17:37:00,
2013-02-25 09:42:00,45.7,38.3,30.32,SW,225,0.0,2.0,75,0.00,,,0.00,meteohub,2013-02-25 17:42:00,
2013-02-25 09:47:00,46.2,38.5,30.32,SW,225,1.0,2.0,74,0.00,,,0.00,meteohub,2013-02-25 17:47:00,
2013-02-25 09:52:00,46.9,38.7,30.32,SW,225,1.0,2.0,73,0.00,,,0.00,meteohub,2013-02-25 17:52:00,
2013-02-25 09:57:00,48.2,39.2,30.31,South,180,2.0,2.0,71,0.00,,,0.00,meteohub,2013-02-25 17:57:00,
2013-02-25 10:02:00,49.3,39.6,30.31,SW,225,2.0,3.0,69,0.00,,,0.00,meteohub,2013-02-25 18:02:00,
2013-02-25 10:07:00,50.4,40.3,30.30,SW,225,2.0,3.0,68,0.00,,,0.00,meteohub,2013-02-25 18:07:00,
2013-02-25 10:17:00,52.0,41.0,30.30,SW,225,2.0,2.0,66,0.00,,,0.00,meteohub,2013-02-25 18:17:00,
2013-02-25 10:22:00,53.1,41.5,30.30,SW,225,2.0,2.0,65,0.00,,,0.00,meteohub,2013-02-25 18:22:00,
2013-02-25 10:32:00,54.7,41.9,30.30,West,270,1.0,4.0,62,0.00,,,0.00,meteohub,2013-02-25 18:32:00,
2013-02-25 10:42:00,57.0,41.5,30.30,West,270,4.0,4.0,56,0.00,,,0.00,meteohub,2013-02-25 18:42:00,
2013-02-25 10:47:00,57.0,41.5,30.30,NW,315,2.0,4.0,56,0.00,,,0.00,meteohub,2013-02-25 18:47:00,
2013-02-25 10:52:00,57.7,41.2,30.29,West,270,3.0,5.0,54,0.00,,,0.00,meteohub,2013-02-25 18:52:00,
2013-02-25 10:57:00,58.1,41.5,30.30,NW,315,2.0,5.0,54,0.00,,,0.00,meteohub,2013-02-25 18:57:00,
2013-02-25 11:02:00,58.5,40.8,30.30,East,90,3.0,4.0,52,0.00,,,0.00,meteohub,2013-02-25 19:02:00,
2013-02-25 11:07:00,58.6,41.0,30.29,West,270,4.0,4.0,52,0.00,,,0.00,meteohub,2013-02-25 19:07:00,
2013-02-25 11:12:00,59.0,40.5,30.29,NW,315,4.0,4.0,50,0.00,,,0.00,meteohub,2013-02-25 19:12:00,
2013-02-25 11:17:00,59.0,40.5,30.29,West,270,2.0,4.0,50,0.00,,,0.00,meteohub,2013-02-25 19:17:00,
2013-02-25 11:22:00,59.2,40.6,30.30,NW,315,3.0,4.0,50,0.00,,,0.00,meteohub,2013-02-25 19:22:00,
2013-02-25 11:27:00,59.4,40.6,30.30,NW,315,4.0,5.0,50,0.00,,,0.00,meteohub,2013-02-25 19:27:00,
2013-02-25 11:32:00,59.4,39.2,30.30,NW,315,4.0,5.0,47,0.00,,,0.00,meteohub,2013-02-25 19:32:00,
2013-02-25 11:37:00,59.4,40.3,30.30,NW,315,3.0,5.0,49,0.00,,,0.00,meteohub,2013-02-25 19:37:00,
2013-02-25 11:42:00,59.5,40.3,30.30,North,0,4.0,5.0,49,0.00,,,0.00,meteohub,2013-02-25 19:42:00,
2013-02-25 11:47:00,59.9,40.1,30.30,NW,315,4.0,5.0,48,0.00,,,0.00,meteohub,2013-02-25 19:47:00,
2013-02-25 11:52:00,59.2,40.1,30.30,NW,315,4.0,5.0,49,0.00,,,0.00,meteohub,2013-02-25 19:52:00,
2013-02-25 11:57:00,59.5,39.9,30.29,North,0,2.0,5.0,48,0.00,,,0.00,meteohub,2013-02-25 19:57:00,
2013-02-25 12:02:00,59.7,39.9,30.29,North,0,4.0,5.0,48,0.00,,,0.00,meteohub,2013-02-25 20:02:00,
2013-02-25 12:07:00,59.5,38.7,30.29,NW,315,4.0,4.0,46,0.00,,,0.00,meteohub,2013-02-25 20:07:00,
2013-02-25 12:12:00,59.2,39.0,30.29,North,0,4.0,6.0,47,0.00,,,0.00,meteohub,2013-02-25 20:12:00,
2013-02-25 12:17:00,59.4,39.7,30.28,North,0,2.0,6.0,48,0.00,,,0.00,meteohub,2013-02-25 20:17:00,
2013-02-25 12:22:00,59.5,39.9,30.29,North,0,4.0,6.0,48,0.00,,,0.00,meteohub,2013-02-25 20:22:00,
2013-02-25 12:27:00,59.9,39.6,30.28,West,270,4.0,6.0,47,0.00,,,0.00,meteohub,2013-02-25 20:27:00,
2013-02-25 12:32:00,59.7,38.8,30.27,North,0,3.0,6.0,46,0.00,,,0.00,meteohub,2013-02-25 20:32:00,
2013-02-25 12:37:00,59.0,37.8,30.27,East,90,4.0,6.0,45,0.00,,,0.00,meteohub,2013-02-25 20:37:00,
2013-02-25 12:42:00,59.2,39.6,30.28,NW,315,4.0,5.0,48,0.00,,,0.00,meteohub,2013-02-25 20:42:00,
2013-02-25 12:47:00,59.5,39.4,30.28,NW,315,3.0,4.0,47,0.00,,,0.00,meteohub,2013-02-25 20:47:00,
2013-02-25 12:52:00,59.5,39.4,30.27,NE,45,4.0,4.0,47,0.00,,,0.00,meteohub,2013-02-25 20:52:00,
2013-02-25 12:57:00,59.7,39.4,30.27,North,0,2.0,4.0,47,0.00,,,0.00,meteohub,2013-02-25 20:57:00,
2013-02-25 13:02:00,60.1,38.7,30.27,NW,315,4.0,4.0,45,0.00,,,0.00,meteohub,2013-02-25 21:02:00,
2013-02-25 13:07:00,60.1,39.7,30.27,NW,315,4.0,4.0,47,0.00,,,0.00,meteohub,2013-02-25 21:07:00,
2013-02-25 13:12:00,60.3,39.9,30.27,NW,315,3.0,4.0,47,0.00,,,0.00,meteohub,2013-02-25 21:12:00,
2013-02-25 13:17:00,60.1,40.3,30.26,NW,315,3.0,4.0,48,0.00,,,0.00,meteohub,2013-02-25 21:17:00,
2013-02-25 13:22:00,60.4,41.2,30.26,North,0,3.0,4.0,49,0.00,,,0.00,meteohub,2013-02-25 21:22:00,
2013-02-25 13:27:00,60.4,41.2,30.26,West,270,4.0,4.0,49,0.00,,,0.00,meteohub,2013-02-25 21:27:00,
2013-02-25 13:32:00,60.8,41.5,30.26,NW,315,3.0,4.0,49,0.00,,,0.00,meteohub,2013-02-25 21:32:00,
2013-02-25 13:37:00,61.2,41.4,30.26,North,0,3.0,4.0,48,0.00,,,0.00,meteohub,2013-02-25 21:37:00,
2013-02-25 13:42:00,61.3,41.0,30.26,NW,315,4.0,4.0,47,0.00,,,0.00,meteohub,2013-02-25 21:42:00,
2013-02-25 13:47:00,61.3,41.5,30.26,NW,315,3.0,4.0,48,0.00,,,0.00,meteohub,2013-02-25 21:47:00,
2013-02-25 13:52:00,61.3,41.0,30.25,NW,315,5.0,5.0,47,0.00,,,0.00,meteohub,2013-02-25 21:52:00,
2013-02-25 13:57:00,61.3,41.5,30.25,West,270,2.0,5.0,48,0.00,,,0.00,meteohub,2013-02-25 21:57:00,
2013-02-25 14:02:00,61.9,41.9,30.25,North,0,2.0,5.0,48,0.00,,,0.00,meteohub,2013-02-25 22:02:00,
2013-02-25 14:07:00,62.2,41.7,30.25,NW,315,2.0,5.0,47,0.00,,,0.00,meteohub,2013-02-25 22:07:00,
2013-02-25 14:12:00,62.2,41.2,30.25,NW,315,3.0,4.0,46,0.00,,,0.00,meteohub,2013-02-25 22:12:00,
2013-02-25 14:17:00,62.4,41.4,30.25,West,270,2.0,4.0,46,0.00,,,0.00,meteohub,2013-02-25 22:17:00,
2013-02-25 14:22:00,62.6,40.5,30.25,North,0,4.0,4.0,44,0.00,,,0.00,meteohub,2013-02-25 22:22:00,
2013-02-25 14:27:00,62.4,40.3,30.25,North,0,4.0,4.0,44,0.00,,,0.00,meteohub,2013-02-25 22:27:00,
2013-02-25 14:32:00,62.4,40.3,30.24,SW,225,2.0,4.0,44,0.00,,,0.00,meteohub,2013-02-25 22:32:00,
2013-02-25 14:37:00,62.4,40.3,30.25,NW,315,2.0,4.0,44,0.00,,,0.00,meteohub,2013-02-25 22:37:00,
2013-02-25 14:42:00,62.8,40.5,30.24,WSW,248,2.0,4.0,44,0.00,,,0.00,meteohub,2013-02-25 22:42:00,
2013-02-25 14:47:00,63.3,41.0,30.25,WNW,293,2.0,4.0,44,0.00,,,0.00,meteohub,2013-02-25 22:47:00,
2013-02-25 14:52:00,63.9,41.0,30.25,NW,315,2.0,4.0,43,0.00,,,0.00,meteohub,2013-02-25 22:52:00,
2013-02-25 14:57:00,63.7,39.6,30.25,South,180,3.0,3.0,41,0.00,,,0.00,meteohub,2013-02-25 22:57:00,
2013-02-25 15:02:00,63.3,38.7,30.24,North,0,4.0,4.0,40,0.00,,,0.00,meteohub,2013-02-25 23:02:00,
2013-02-25 15:07:00,63.0,38.8,30.24,NW,315,3.0,4.0,41,0.00,,,0.00,meteohub,2013-02-25 23:07:00,
2013-02-25 15:12:00,62.6,39.2,30.24,NE,45,4.0,4.0,42,0.00,,,0.00,meteohub,2013-02-25 23:12:00,
2013-02-25 15:17:00,62.4,38.5,30.24,NW,315,3.0,4.0,41,0.00,,,0.00,meteohub,2013-02-25 23:17:00,
2013-02-25 15:22:00,62.1,38.7,30.23,West,270,2.0,4.0,42,0.00,,,0.00,meteohub,2013-02-25 23:22:00,
2013-02-25 15:27:00,61.9,38.5,30.24,NW,315,3.0,4.0,42,0.00,,,0.00,meteohub,2013-02-25 23:27:00,
2013-02-25 15:32:00,61.5,38.8,30.23,NW,315,2.0,3.0,43,0.00,,,0.00,meteohub,2013-02-25 23:32:00,
2013-02-25 15:37:00,61.3,38.7,30.23,NNW,338,3.0,3.0,43,0.00,,,0.00,meteohub,2013-02-25 23:37:00,
2013-02-25 15:42:00,61.2,38.5,30.23,SE,135,2.0,3.0,43,0.00,,,0.00,meteohub,2013-02-25 23:42:00,
2013-02-25 15:47:00,61.0,38.8,30.22,WNW,293,1.0,3.0,44,0.00,,,0.00,meteohub,2013-02-25 23:47:00,
2013-02-25 15:52:00,60.8,38.7,30.23,SE,135,2.0,3.0,44,0.00,,,0.00,meteohub,2013-02-25 23:52:00,
2013-02-25 15:57:00,60.8,38.7,30.22,NW,315,2.0,3.0,44,0.00,,,0.00,meteohub,2013-02-25 23:57:00,
2013-02-25 16:02:00,60.8,39.4,30.22,NE,45,3.0,3.0,45,0.00,,,0.00,meteohub,2013-02-26 00:02:00,
2013-02-25 16:07:00,60.8,38.7,30.22,East,90,2.0,3.0,44,0.00,,,0.00,meteohub,2013-02-26 00:07:00,
2013-02-25 16:12:00,60.6,39.2,30.22,South,180,2.0,3.0,45,0.00,,,0.00,meteohub,2013-02-26 00:12:00,
2013-02-25 16:17:00,60.6,39.7,30.23,SE,135,3.0,3.0,46,0.00,,,0.00,meteohub,2013-02-26 00:17:00,
2013-02-25 16:22:00,60.6,39.7,30.22,NNW,338,2.0,3.0,46,0.00,,,0.00,meteohub,2013-02-26 00:22:00,
2013-02-25 16:27:00,60.4,40.1,30.23,SW,225,1.0,3.0,47,0.00,,,0.00,meteohub,2013-02-26 00:27:00,
2013-02-25 16:32:00,60.3,39.4,30.22,SW,225,3.0,4.0,46,0.00,,,0.00,meteohub,2013-02-26 00:32:00,
2013-02-25 16:37:00,60.3,39.4,30.22,South,180,0.0,4.0,46,0.00,,,0.00,meteohub,2013-02-26 00:37:00,
2013-02-25 16:42:00,59.9,39.0,30.22,South,180,2.0,4.0,46,0.00,,,0.00,meteohub,2013-02-26 00:42:00,
2013-02-25 16:47:00,59.7,39.4,30.23,SW,225,0.0,3.0,47,0.00,,,0.00,meteohub,2013-02-26 00:47:00,
2013-02-25 16:52:00,59.7,39.4,30.22,NW,315,2.0,2.0,47,0.00,,,0.00,meteohub,2013-02-26 00:52:00,
2013-02-25 16:57:00,59.5,39.9,30.23,SE,135,1.0,2.0,48,0.00,,,0.00,meteohub,2013-02-26 00:57:00,
2013-02-25 17:02:00,59.4,39.7,30.22,SW,225,0.0,2.0,48,0.00,,,0.00,meteohub,2013-02-26 01:02:00,
2013-02-25 17:07:00,59.4,39.7,30.23,SW,225,0.0,2.0,48,0.00,,,0.00,meteohub,2013-02-26 01:07:00,
2013-02-25 17:12:00,58.8,41.2,30.22,SE,135,1.0,2.0,52,0.00,,,0.00,meteohub,2013-02-26 01:12:00,
2013-02-25 17:17:00,58.6,41.5,30.22,SW,225,2.0,2.0,53,0.00,,,0.00,meteohub,2013-02-26 01:17:00,
2013-02-25 17:22:00,58.3,41.7,30.22,East,90,2.0,2.0,54,0.00,,,0.00,meteohub,2013-02-26 01:22:00,
2013-02-25 17:27:00,57.9,41.4,30.22,South,180,0.0,2.0,54,0.00,,,0.00,meteohub,2013-02-26 01:27:00,
2013-02-25 17:32:00,57.6,41.0,30.22,SW,225,1.0,2.0,54,0.00,,,0.00,meteohub,2013-02-26 01:32:00,
2013-02-25 17:37:00,57.2,40.6,30.23,SW,225,1.0,2.0,54,0.00,,,0.00,meteohub,2013-02-26 01:37:00,
2013-02-25 17:42:00,56.8,40.5,30.22,West,270,0.0,2.0,54,0.00,,,0.00,meteohub,2013-02-26 01:42:00,
2013-02-25 17:47:00,56.3,39.9,30.23,South,180,0.0,1.0,54,0.00,,,0.00,meteohub,2013-02-26 01:47:00,
2013-02-25 17:52:00,55.9,39.6,30.23,South,180,0.0,1.0,54,0.00,,,0.00,meteohub,2013-02-26 01:52:00,
2013-02-25 17:57:00,55.4,39.6,30.23,South,180,0.0,1.0,55,0.00,,,0.00,meteohub,2013-02-26 01:57:00,
2013-02-25 18:02:00,55.0,39.2,30.23,East,90,0.0,1.0,55,0.00,,,0.00,meteohub,2013-02-26 02:02:00,
2013-02-25 18:07:00,54.3,39.4,30.24,NE,45,0.0,1.0,57,0.00,,,0.00,meteohub,2013-02-26 02:07:00,
2013-02-25 18:12:00,54.0,39.9,30.24,NE,45,0.0,1.0,59,0.00,,,0.00,meteohub,2013-02-26 02:12:00,
2013-02-25 18:17:00,53.6,40.1,30.23,SE,135,1.0,2.0,60,0.00,,,0.00,meteohub,2013-02-26 02:17:00,
2013-02-25 18:27:00,52.9,41.0,30.25,West,270,0.0,2.0,64,0.00,,,0.00,meteohub,2013-02-26 02:27:00,
2013-02-25 18:32:00,52.5,41.2,30.24,West,270,0.0,1.0,65,0.00,,,0.00,meteohub,2013-02-26 02:32:00,
2013-02-25 18:37:00,52.0,41.4,30.25,West,270,1.0,1.0,67,0.00,,,0.00,meteohub,2013-02-26 02:37:00,
2013-02-25 18:47:00,51.4,41.9,30.24,SW,225,0.0,2.0,70,0.00,,,0.00,meteohub,2013-02-26 02:47:00,
2013-02-25 18:52:00,51.3,42.3,30.25,SE,135,1.0,2.0,71,0.00,,,0.00,meteohub,2013-02-26 02:52:00,
2013-02-25 19:02:00,50.7,42.1,30.25,West,270,0.0,1.0,72,0.00,,,0.00,meteohub,2013-02-26 03:02:00,
2013-02-25 19:07:00,50.7,42.1,30.24,West,270,0.0,1.0,72,0.00,,,0.00,meteohub,2013-02-26 03:07:00,
2013-02-25 19:12:00,49.5,40.8,30.24,West,270,0.0,1.0,72,0.00,,,0.00,meteohub,2013-02-26 03:12:00,
2013-02-25 19:17:00,49.1,41.2,30.24,East,90,0.0,1.0,74,0.00,,,0.00,meteohub,2013-02-26 03:17:00,
2013-02-25 19:22:00,48.9,41.7,30.25,East,90,3.0,3.0,76,0.00,,,0.00,meteohub,2013-02-26 03:22:00,
2013-02-25 19:27:00,48.6,41.4,30.25,SE,135,2.0,3.0,76,0.00,,,0.00,meteohub,2013-02-26 03:27:00,
2013-02-25 19:32:00,48.4,41.5,30.25,East,90,0.0,3.0,77,0.00,,,0.00,meteohub,2013-02-26 03:32:00,
2013-02-25 19:37:00,48.0,41.2,30.25,East,90,0.0,3.0,77,0.00,,,0.00,meteohub,2013-02-26 03:37:00,
2013-02-25 19:47:00,47.3,40.5,30.25,East,90,0.0,1.0,77,0.00,,,0.00,meteohub,2013-02-26 03:47:00,
2013-02-25 19:52:00,46.8,40.3,30.25,East,90,1.0,0.0,78,0.00,,,0.00,meteohub,2013-02-26 03:52:00,
2013-02-25 19:57:00,46.6,40.5,30.25,East,90,0.0,1.0,79,0.00,,,0.00,meteohub,2013-02-26 03:57:00,
2013-02-25 20:02:00,46.4,40.3,30.26,East,90,0.0,1.0,79,0.00,,,0.00,meteohub,2013-02-26 04:02:00,
2013-02-25 20:07:00,46.4,40.3,30.26,East,90,0.0,1.0,79,0.00,,,0.00,meteohub,2013-02-26 04:07:00,
2013-02-25 20:17:00,45.5,40.1,30.26,SW,225,0.0,0.0,81,0.00,,,0.00,meteohub,2013-02-26 04:17:00,
2013-02-25 20:22:00,45.3,39.9,30.26,NE,45,2.0,2.0,81,0.00,,,0.00,meteohub,2013-02-26 04:22:00,
2013-02-25 20:27:00,45.3,39.9,30.26,West,270,0.0,2.0,81,0.00,,,0.00,meteohub,2013-02-26 04:27:00,
2013-02-25 20:32:00,44.8,39.4,30.27,West,270,0.0,2.0,81,0.00,,,0.00,meteohub,2013-02-26 04:32:00,
2013-02-25 20:37:00,44.6,39.2,30.27,West,270,0.0,2.0,81,0.00,,,0.00,meteohub,2013-02-26 04:37:00,
2013-02-25 20:42:00,44.2,39.0,30.27,West,270,0.0,0.0,82,0.00,,,0.00,meteohub,2013-02-26 04:42:00,
2013-02-25 20:47:00,44.1,38.8,30.27,West,270,0.0,1.0,82,0.00,,,0.00,meteohub,2013-02-26 04:47:00,
2013-02-25 20:52:00,43.7,38.5,30.27,West,270,0.0,1.0,82,0.00,,,0.00,meteohub,2013-02-26 04:52:00,
2013-02-25 20:57:00,43.5,38.7,30.26,East,90,1.0,0.0,83,0.00,,,0.00,meteohub,2013-02-26 04:57:00,
2013-02-25 21:02:00,43.5,38.7,30.26,East,90,0.0,1.0,83,0.00,,,0.00,meteohub,2013-02-26 05:02:00,
2013-02-25 21:07:00,43.5,38.7,30.27,East,90,0.0,1.0,83,0.00,,,0.00,meteohub,2013-02-26 05:07:00,
2013-02-25 21:12:00,43.2,38.3,30.26,East,90,0.0,1.0,83,0.00,,,0.00,meteohub,2013-02-26 05:12:00,
2013-02-25 21:17:00,43.0,38.1,30.26,East,90,0.0,0.0,83,0.00,,,0.00,meteohub,2013-02-26 05:17:00,
2013-02-25 21:22:00,42.8,38.3,30.26,East,90,2.0,2.0,84,0.00,,,0.00,meteohub,2013-02-26 05:22:00,
2013-02-25 21:27:00,42.8,38.3,30.27,NE,45,0.0,2.0,84,0.00,,,0.00,meteohub,2013-02-26 05:27:00,
2013-02-25 21:32:00,42.8,38.7,30.26,SW,225,1.0,2.0,85,0.00,,,0.00,meteohub,2013-02-26 05:32:00,
2013-02-25 21:37:00,42.6,38.5,30.27,SW,225,0.0,2.0,85,0.00,,,0.00,meteohub,2013-02-26 05:37:00,
2013-02-25 21:42:00,42.4,38.3,30.27,SW,225,0.0,2.0,85,0.00,,,0.00,meteohub,2013-02-26 05:42:00,
2013-02-25 21:47:00,42.3,37.8,30.27,SW,225,0.0,1.0,84,0.00,,,0.00,meteohub,2013-02-26 05:47:00,
2013-02-25 21:52:00,42.1,37.9,30.27,SW,225,0.0,0.0,85,0.00,,,0.00,meteohub,2013-02-26 05:52:00,
2013-02-25 21:57:00,41.7,37.6,30.27,SW,225,0.0,0.0,85,0.00,,,0.00,meteohub,2013-02-26 05:57:00,
2013-02-25 22:02:00,41.7,37.6,30.27,SW,225,0.0,0.0,85,0.00,,,0.00,meteohub,2013-02-26 06:02:00,
2013-02-25 22:07:00,41.7,37.6,30.27,SW,225,0.0,0.0,85,0.00,,,0.00,meteohub,2013-02-26 06:07:00,
2013-02-25 22:12:00,41.5,37.4,30.27,SE,135,0.0,2.0,85,0.00,,,0.00,meteohub,2013-02-26 06:12:00,
2013-02-25 22:17:00,41.5,37.6,30.27,SW,225,0.0,2.0,86,0.00,,,0.00,meteohub,2013-02-26 06:17:00,
2013-02-25 22:22:00,41.4,37.6,30.27,SW,225,0.0,2.0,86,0.00,,,0.00,meteohub,2013-02-26 06:22:00,
2013-02-25 22:27:00,41.2,37.4,30.27,SW,225,0.0,1.0,86,0.00,,,0.00,meteohub,2013-02-26 06:27:00,
2013-02-25 22:32:00,41.2,37.4,30.27,NW,315,0.0,0.0,86,0.00,,,0.00,meteohub,2013-02-26 06:32:00,
2013-02-25 22:37:00,41.2,37.4,30.28,NW,315,0.0,0.0,86,0.00,,,0.00,meteohub,2013-02-26 06:37:00,
2013-02-25 22:42:00,41.0,37.2,30.28,NW,315,0.0,0.0,86,0.00,,,0.00,meteohub,2013-02-26 06:42:00,
2013-02-25 22:47:00,41.0,37.2,30.27,NW,315,0.0,0.0,86,0.00,,,0.00,meteohub,2013-02-26 06:47:00,
2013-02-25 22:52:00,41.0,37.2,30.27,NW,315,0.0,0.0,86,0.00,,,0.00,meteohub,2013-02-26 06:52:00,
2013-02-25 22:57:00,40.8,37.0,30.27,South,180,0.0,0.0,86,0.00,,,0.00,meteohub,2013-02-26 06:57:00,
2013-02-25 23:02:00,40.6,36.9,30.27,NW,315,1.0,0.0,86,0.00,,,0.00,meteohub,2013-02-26 07:02:00,
2013-02-25 23:07:00,40.6,36.9,30.27,NW,315,1.0,1.0,86,0.00,,,0.00,meteohub,2013-02-26 07:07:00,
2013-02-25 23:12:00,40.5,36.7,30.27,NW,315,0.0,1.0,86,0.00,,,0.00,meteohub,2013-02-26 07:12:00,
2013-02-25 23:17:00,40.1,36.5,30.27,NW,315,0.0,1.0,87,0.00,,,0.00,meteohub,2013-02-26 07:17:00,
2013-02-25 23:22:00,39.9,36.3,30.27,NW,315,0.0,1.0,87,0.00,,,0.00,meteohub,2013-02-26 07:22:00,
2013-02-25 23:27:00,39.9,36.3,30.27,NW,315,1.0,0.0,87,0.00,,,0.00,meteohub,2013-02-26 07:27:00,
2013-02-25 23:32:00,40.1,36.5,30.27,NW,315,0.0,1.0,87,0.00,,,0.00,meteohub,2013-02-26 07:32:00,
2013-02-25 23:37:00,40.3,36.7,30.27,SW,225,0.0,1.0,87,0.00,,,0.00,meteohub,2013-02-26 07:37:00,
2013-02-25 23:42:00,40.1,36.5,30.27,SW,225,0.0,1.0,87,0.00,,,0.00,meteohub,2013-02-26 07:42:00,
2013-02-25 23:47:00,40.1,36.5,30.27,South,180,0.0,0.0,87,0.00,,,0.00,meteohub,2013-02-26 07:47:00,
2013-02-25 23:52:00,40.3,36.7,30.26,SW,225,0.0,1.0,87,0.00,,,0.00,meteohub,2013-02-26 07:52:00,
2013-02-25 23:57:00,40.1,36.5,30.26,SW,225,0.0,1.0,87,0.00,,,0.00,meteohub,2013-02-26 07:57:00,